createdAt,value
2019-05-07T00:01:03.071Z,28.77
2019-05-07T00:03:32.853Z,28.20
2019-05-07T00:06:02.779Z,29.90
2019-05-07T00:08:32.235Z,27.87
2019-05-07T00:11:02.313Z,29.80
2019-05-07T00:13:33.320Z,28.62
2019-05-07T00:16:02.508Z,31.27
2019-05-07T00:18:32.304Z,28.60
2019-05-07T00:21:03.328Z,27.47
2019-05-07T00:23:32.511Z,28.10
2019-05-07T00:26:03.165Z,27.27
2019-05-07T00:28:32.719Z,27.77
2019-05-07T00:31:02.878Z,27.05
2019-05-07T00:33:32.949Z,26.57
2019-05-07T00:36:07.332Z,26.40
2019-05-07T00:38:38.330Z,27.00
2019-05-07T00:41:13.758Z,27.30
2019-05-07T00:43:44.064Z,27.25
2019-05-07T00:46:19.102Z,28.02
2019-05-07T00:48:48.049Z,29.97
2019-05-07T00:51:33.691Z,26.27
2019-05-07T00:54:03.527Z,26.57
2019-05-07T00:56:33.175Z,26.47
2019-05-07T00:59:02.365Z,26.80
2019-05-07T01:01:32.428Z,27.15
2019-05-07T01:04:02.819Z,26.77
2019-05-07T01:06:33.077Z,27.13
2019-05-07T01:09:03.354Z,27.40
2019-05-07T01:11:33.560Z,28.43
2019-05-07T01:14:02.844Z,27.40
2019-05-07T01:16:33.015Z,28.80
2019-05-07T01:19:02.193Z,26.65
2019-05-07T01:21:32.449Z,28.30
2019-05-07T01:24:03.299Z,26.85
2019-05-07T01:26:33.099Z,27.60
2019-05-07T01:29:03.192Z,28.03
2019-05-07T01:31:37.861Z,25.53
2019-05-07T01:34:24.761Z,27.00
2019-05-07T01:36:53.536Z,24.87
2019-05-07T01:39:23.168Z,25.53
2019-05-07T01:41:52.551Z,25.57
2019-05-07T01:44:22.106Z,25.08
2019-05-07T01:46:52.925Z,24.05
2019-05-07T01:49:24.103Z,24.67
2019-05-07T01:51:53.046Z,25.90
2019-05-07T01:54:23.838Z,26.42
2019-05-07T01:56:52.767Z,26.37
2019-05-07T01:59:22.518Z,25.80
2019-05-07T02:01:53.251Z,25.30
2019-05-07T02:04:32.619Z,25.12
2019-05-07T02:07:14.216Z,25.33
2019-05-07T02:09:54.997Z,25.03
2019-05-07T02:12:26.647Z,24.57
2019-05-07T02:14:55.563Z,24.63
2019-05-07T02:17:24.498Z,24.70
2019-05-07T02:19:53.819Z,26.50
2019-05-07T02:22:22.822Z,24.57
2019-05-07T02:24:52.545Z,25.57
2019-05-07T02:27:22.106Z,25.40
2019-05-07T02:29:52.851Z,25.33
2019-05-07T02:32:23.996Z,25.30
2019-05-07T02:34:54.464Z,24.77
2019-05-07T02:37:35.755Z,26.50
2019-05-07T02:40:09.215Z,26.07
2019-05-07T02:42:38.043Z,23.87
2019-05-07T02:45:26.049Z,24.00
2019-05-07T02:47:55.280Z,24.20
2019-05-07T02:50:39.246Z,23.83
2019-05-07T02:53:18.289Z,25.10
2019-05-07T02:55:52.812Z,25.57
2019-05-07T02:58:23.949Z,24.87
2019-05-07T03:00:53.460Z,23.50
2019-05-07T03:03:24.655Z,25.72
2019-05-07T03:05:53.896Z,24.07
2019-05-07T03:08:26.989Z,24.72
2019-05-07T03:10:53.788Z,24.92
2019-05-07T03:13:23.705Z,24.52
2019-05-07T03:15:54.091Z,23.62
2019-05-07T03:18:23.803Z,25.17
2019-05-07T03:21:03.199Z,23.80
2019-05-07T03:23:37.599Z,23.52
2019-05-07T03:26:26.131Z,22.37
2019-05-07T03:28:57.041Z,23.80
2019-05-07T03:31:48.078Z,23.00
2019-05-07T03:34:36.808Z,24.00
2019-05-07T03:37:07.179Z,22.67
2019-05-07T03:39:36.007Z,23.18
2019-05-07T03:42:05.000Z,23.15
2019-05-07T03:44:44.196Z,24.02
2019-05-07T03:47:26.008Z,23.73
2019-05-07T03:49:55.701Z,22.65
2019-05-07T03:52:24.795Z,23.30
2019-05-07T03:54:54.204Z,21.42
2019-05-07T03:57:23.981Z,24.67
2019-05-07T03:59:53.490Z,24.00
2019-05-07T04:02:23.763Z,23.73
2019-05-07T04:04:53.165Z,22.93
2019-05-07T04:07:23.238Z,22.80
2019-05-07T04:09:53.558Z,23.22
2019-05-07T04:12:23.983Z,24.52
2019-05-07T04:14:53.858Z,22.87
2019-05-07T04:17:26.601Z,25.75
2019-05-07T04:19:53.458Z,23.87
2019-05-07T04:22:25.170Z,24.72
2019-05-07T04:25:13.166Z,23.22
2019-05-07T04:27:49.194Z,25.00
2019-05-07T04:30:18.257Z,23.07
2019-05-07T04:32:52.771Z,23.65
2019-05-07T04:35:43.493Z,23.02
2019-05-07T04:38:23.876Z,30.70
2019-05-07T04:40:53.708Z,23.87
2019-05-07T04:43:23.532Z,23.57
2019-05-07T04:45:53.729Z,22.65
2019-05-07T04:48:23.487Z,25.17
2019-05-07T04:50:55.009Z,23.50
2019-05-07T04:53:24.131Z,25.70
2019-05-07T04:55:53.579Z,24.85
2019-05-07T04:58:23.611Z,24.20
2019-05-07T05:00:53.897Z,23.95
2019-05-07T05:03:28.394Z,23.22
2019-05-07T05:05:57.319Z,36.40
2019-05-07T05:08:26.659Z,30.35
2019-05-07T05:10:55.466Z,25.90
2019-05-07T05:13:25.152Z,26.90
2019-05-07T05:15:54.041Z,25.30
2019-05-07T05:18:23.236Z,24.53
2019-05-07T05:21:12.165Z,24.37
2019-05-07T05:23:52.382Z,26.47
2019-05-07T05:26:21.964Z,27.13
2019-05-07T05:28:52.525Z,32.13
2019-05-07T05:31:22.268Z,29.53
2019-05-07T05:33:52.594Z,29.70
2019-05-07T05:36:22.354Z,36.33
2019-05-07T05:38:52.916Z,28.00
2019-05-07T05:41:22.787Z,31.43
2019-05-07T05:43:57.201Z,29.60
2019-05-07T05:46:27.516Z,28.83
2019-05-07T05:48:56.403Z,28.70
2019-05-07T05:51:34.783Z,28.47
2019-05-07T05:54:12.770Z,33.87
2019-05-07T05:56:47.710Z,29.90
2019-05-07T05:59:27.774Z,29.10
2019-05-07T06:02:06.530Z,29.40
2019-05-07T06:05:02.275Z,33.87
2019-05-07T06:07:38.435Z,31.20
2019-05-07T06:10:16.646Z,28.87
2019-05-07T06:12:52.236Z,32.10
2019-05-07T06:15:42.004Z,28.93
2019-05-07T06:18:32.587Z,33.07
2019-05-07T06:21:35.737Z,30.80
2019-05-07T06:24:07.594Z,28.47
2019-05-07T06:26:36.830Z,29.40
2019-05-07T06:29:07.456Z,33.67
2019-05-07T06:31:36.324Z,28.30
2019-05-07T06:34:05.440Z,29.13
2019-05-07T06:36:35.903Z,31.70
2019-05-07T06:39:15.192Z,32.33
2019-05-07T06:42:02.170Z,30.70
2019-05-07T06:44:32.434Z,31.20
2019-05-07T06:47:02.445Z,32.03
2019-05-07T06:49:32.447Z,35.80
2019-05-07T06:52:03.046Z,31.53
2019-05-07T06:54:32.270Z,38.13
2019-05-07T06:57:01.991Z,34.03
2019-05-07T06:59:37.056Z,31.83
2019-05-07T07:02:25.608Z,31.00
2019-05-07T07:05:02.893Z,35.53
2019-05-07T07:07:41.981Z,31.60
2019-05-07T07:10:29.014Z,35.80
2019-05-07T07:12:57.903Z,31.30
2019-05-07T07:15:27.069Z,35.20
2019-05-07T07:17:56.108Z,33.27
2019-05-07T07:20:24.916Z,41.70
2019-05-07T07:22:53.887Z,35.63
2019-05-07T07:25:23.085Z,33.47
2019-05-07T07:27:52.151Z,34.80
2019-05-07T07:30:43.407Z,35.60
2019-05-07T07:33:13.298Z,39.73
2019-05-07T07:35:42.842Z,33.37
2019-05-07T07:38:30.049Z,32.83
2019-05-07T07:41:09.621Z,39.00
2019-05-07T07:43:38.540Z,42.47
2019-05-07T07:46:07.632Z,38.60
2019-05-07T07:48:36.395Z,35.10
2019-05-07T07:51:05.372Z,34.97
2019-05-07T07:53:35.499Z,34.47
2019-05-07T07:56:23.120Z,35.23
2019-05-07T07:59:12.623Z,45.93
2019-05-07T08:01:47.232Z,40.43
2019-05-07T08:04:16.079Z,34.70
2019-05-07T08:06:46.028Z,38.57
2019-05-07T08:09:15.000Z,32.53
2019-05-07T08:11:43.916Z,38.37
2019-05-07T08:14:12.859Z,35.90
2019-05-07T08:16:42.982Z,44.83
2019-05-07T08:19:21.710Z,38.30
2019-05-07T08:21:44.336Z,35.80
2019-05-07T08:24:15.297Z,45.03
2019-05-07T08:26:44.303Z,48.57
2019-05-07T08:29:13.466Z,42.10
2019-05-07T08:31:55.806Z,43.63
2019-05-07T08:34:37.700Z,36.13
2019-05-07T08:37:07.440Z,33.87
2019-05-07T08:39:36.599Z,37.10
2019-05-07T08:42:05.650Z,37.27
2019-05-07T08:44:42.962Z,35.20
2019-05-07T08:47:24.375Z,34.80
2019-05-07T08:49:53.190Z,36.90
2019-05-07T08:52:25.885Z,35.87
2019-05-07T08:54:53.410Z,38.23
2019-05-07T08:57:22.895Z,42.20
2019-05-07T09:00:00.398Z,43.63
2019-05-07T09:02:22.907Z,37.70
2019-05-07T09:04:52.423Z,44.23
2019-05-07T09:07:22.023Z,45.20
2019-05-07T09:09:52.310Z,40.30
2019-05-07T09:12:23.007Z,40.87
2019-05-07T09:14:52.894Z,42.20
2019-05-07T09:17:22.951Z,42.97
2019-05-07T09:19:54.940Z,42.87
2019-05-07T09:22:23.199Z,49.17
2019-05-07T09:24:52.772Z,39.60
2019-05-07T09:27:33.907Z,39.50
2019-05-07T09:30:18.856Z,42.80
2019-05-07T09:32:57.260Z,46.83
2019-05-07T09:35:35.520Z,52.07
2019-05-07T09:38:05.596Z,48.90
2019-05-07T09:40:34.406Z,40.57
2019-05-07T09:43:07.471Z,43.13
2019-05-07T09:45:36.178Z,45.43
2019-05-07T09:48:05.664Z,47.40
2019-05-07T09:50:34.416Z,45.67
2019-05-07T09:53:03.241Z,42.60
2019-05-07T09:55:32.776Z,45.80
2019-05-07T09:58:02.141Z,49.60
2019-05-07T10:00:32.135Z,51.30
2019-05-07T10:03:01.209Z,44.23
2019-05-07T10:05:31.934Z,49.77
2019-05-07T10:08:01.933Z,46.80
2019-05-07T10:10:32.739Z,49.53
2019-05-07T10:13:14.942Z,48.77
2019-05-07T10:15:43.719Z,42.43
2019-05-07T10:18:17.231Z,39.47
2019-05-07T10:20:46.099Z,44.67
2019-05-07T10:23:22.849Z,40.20
2019-05-07T10:25:53.415Z,39.70
2019-05-07T10:28:23.069Z,46.00
2019-05-07T10:30:52.705Z,40.17
2019-05-07T10:33:22.856Z,38.73
2019-05-07T10:35:52.966Z,45.20
2019-05-07T10:38:22.125Z,41.63
2019-05-07T10:40:51.223Z,46.40
2019-05-07T10:43:25.796Z,46.93
2019-05-07T10:46:12.786Z,50.23
2019-05-07T10:48:49.962Z,42.87
2019-05-07T10:51:18.904Z,43.77
2019-05-07T10:53:47.790Z,39.77
2019-05-07T10:56:16.847Z,45.43
2019-05-07T10:58:46.828Z,39.80
2019-05-07T11:01:18.537Z,42.43
2019-05-07T11:03:47.571Z,41.70
2019-05-07T11:06:16.591Z,42.70
2019-05-07T11:08:45.411Z,45.83
2019-05-07T11:11:14.660Z,39.43
2019-05-07T11:13:43.532Z,43.23
2019-05-07T11:16:14.562Z,41.53
2019-05-07T11:18:46.122Z,38.23
2019-05-07T11:21:15.334Z,38.80
2019-05-07T11:23:44.223Z,38.73
2019-05-07T11:26:13.361Z,39.13
2019-05-07T11:28:42.215Z,39.43
2019-05-07T11:31:12.369Z,39.03
2019-05-07T11:33:41.713Z,39.47
2019-05-07T11:36:10.745Z,40.63
2019-05-07T11:38:42.236Z,42.67
2019-05-07T11:41:12.641Z,41.37
2019-05-07T11:44:05.788Z,37.90
2019-05-07T11:46:44.442Z,39.97
2019-05-07T11:49:26.904Z,37.83
2019-05-07T11:52:00.695Z,38.03
2019-05-07T11:54:31.666Z,38.73
2019-05-07T11:57:02.508Z,38.20
2019-05-07T11:59:32.631Z,37.30
2019-05-07T12:02:04.001Z,42.00
2019-05-07T12:04:32.971Z,38.83
2019-05-07T12:07:02.759Z,41.63
2019-05-07T12:09:33.343Z,36.70
2019-05-07T12:12:02.462Z,37.23
2019-05-07T12:14:34.666Z,38.60
2019-05-07T12:17:02.778Z,37.30
2019-05-07T12:19:33.028Z,37.43
2019-05-07T12:22:02.751Z,37.20
2019-05-07T12:24:32.811Z,35.73
2019-05-07T12:27:02.683Z,33.77
2019-05-07T12:29:32.222Z,34.07
2019-05-07T12:32:09.296Z,34.63
2019-05-07T12:34:42.361Z,35.97
2019-05-07T12:37:12.244Z,33.60
2019-05-07T12:39:42.328Z,33.60
2019-05-07T12:42:12.044Z,34.30
2019-05-07T12:44:42.467Z,33.93
2019-05-07T12:47:12.142Z,31.93
2019-05-07T12:49:42.900Z,32.00
2019-05-07T12:52:20.007Z,31.60
2019-05-07T12:54:56.559Z,35.77
2019-05-07T12:57:25.572Z,32.63
2019-05-07T12:59:54.515Z,32.07
2019-05-07T13:02:40.643Z,31.77
2019-05-07T13:05:05.045Z,32.73
2019-05-07T13:07:50.652Z,32.90
2019-05-07T13:10:21.780Z,32.63
2019-05-07T13:12:52.659Z,32.40
2019-05-07T13:15:27.570Z,31.67
2019-05-07T13:17:53.544Z,29.90
2019-05-07T13:20:22.858Z,31.93
2019-05-07T13:22:51.867Z,31.07
2019-05-07T13:25:21.608Z,30.03
2019-05-07T13:27:52.153Z,29.70
2019-05-07T13:30:22.221Z,28.63
2019-05-07T13:32:52.580Z,29.67
2019-05-07T13:35:21.845Z,30.40
2019-05-07T13:38:11.815Z,30.10
2019-05-07T13:40:55.350Z,29.33
2019-05-07T13:43:29.816Z,29.73
2019-05-07T13:46:03.579Z,29.60
2019-05-07T13:48:32.735Z,28.77
2019-05-07T13:51:02.275Z,29.73
2019-05-07T13:53:32.248Z,28.93
2019-05-07T13:56:02.390Z,29.03
2019-05-07T13:58:32.935Z,28.63
2019-05-07T14:01:12.152Z,28.53
2019-05-07T14:03:41.265Z,30.57
2019-05-07T14:06:12.626Z,32.53
2019-05-07T14:08:42.970Z,29.37
2019-05-07T14:11:12.779Z,27.60
2019-05-07T14:13:43.641Z,29.50
2019-05-07T14:16:13.865Z,29.33
2019-05-07T14:18:43.208Z,27.97
2019-05-07T14:21:13.032Z,29.10
2019-05-07T14:23:42.860Z,28.07
2019-05-07T14:26:12.183Z,28.17
2019-05-07T14:28:42.325Z,28.20
2019-05-07T14:31:12.327Z,27.80
2019-05-07T14:33:47.900Z,29.23
2019-05-07T14:36:22.291Z,30.93
2019-05-07T14:38:52.003Z,29.00
2019-05-07T14:41:22.896Z,28.50
2019-05-07T14:44:01.164Z,29.97
2019-05-07T14:46:43.909Z,29.67
2019-05-07T14:49:02.762Z,29.00
2019-05-07T14:51:33.011Z,29.37
2019-05-07T14:54:02.049Z,28.60
2019-05-07T14:56:32.273Z,29.70
2019-05-07T14:59:02.281Z,28.57
2019-05-07T15:01:33.790Z,27.97
2019-05-07T15:04:03.082Z,30.13
2019-05-07T15:06:32.642Z,29.20
2019-05-07T15:09:01.796Z,28.50
2019-05-07T15:11:31.792Z,35.00
2019-05-07T15:14:02.652Z,28.10
2019-05-07T15:16:32.107Z,29.10
2019-05-07T15:19:01.619Z,29.70
2019-05-07T15:21:32.337Z,30.10
2019-05-07T15:24:02.291Z,30.83
2019-05-07T15:26:32.636Z,30.03
2019-05-07T15:29:07.955Z,29.23
2019-05-07T15:31:55.212Z,28.27
2019-05-07T15:34:24.186Z,29.17
2019-05-07T15:36:53.032Z,28.00
2019-05-07T15:39:22.410Z,29.07
2019-05-07T15:41:51.861Z,29.97
2019-05-07T15:44:20.923Z,27.77
2019-05-07T15:46:51.977Z,29.10
2019-05-07T15:49:21.666Z,28.90
2019-05-07T15:51:53.147Z,27.70
2019-05-07T15:54:22.812Z,29.60
2019-05-07T15:56:54.238Z,28.77
2019-05-07T15:59:23.349Z,28.17
2019-05-07T16:01:54.862Z,29.20
2019-05-07T16:04:25.987Z,29.50
2019-05-07T16:06:57.317Z,29.57
2019-05-07T16:09:28.984Z,29.60
2019-05-07T16:11:58.434Z,28.80
2019-05-07T16:14:27.404Z,28.07
2019-05-07T16:17:03.271Z,27.90
2019-05-07T16:19:32.433Z,30.07
2019-05-07T16:22:06.523Z,27.17
2019-05-07T16:24:35.889Z,28.00
2019-05-07T16:27:05.243Z,29.10
2019-05-07T16:29:35.875Z,28.00
2019-05-07T16:32:05.026Z,28.00
2019-05-07T16:34:34.524Z,29.00
2019-05-07T16:37:07.313Z,27.30
2019-05-07T16:39:34.522Z,29.33
2019-05-07T16:42:04.174Z,29.27
2019-05-07T16:44:33.387Z,28.00
2019-05-07T16:47:02.942Z,28.83
2019-05-07T16:49:31.964Z,29.80
2019-05-07T16:52:02.152Z,40.13
2019-05-07T16:54:31.614Z,28.97
2019-05-07T16:57:22.494Z,28.90
2019-05-07T16:59:52.526Z,29.87
2019-05-07T17:02:25.771Z,31.70
2019-05-07T17:05:07.037Z,32.03
2019-05-07T17:07:39.364Z,31.10
2019-05-07T17:10:11.563Z,31.13
2019-05-07T17:12:46.520Z,32.33
2019-05-07T17:15:18.149Z,33.23
2019-05-07T17:17:51.392Z,30.33
2019-05-07T17:20:21.953Z,29.70
2019-05-07T17:22:52.656Z,28.50
2019-05-07T17:25:42.761Z,29.90
2019-05-07T17:28:12.687Z,32.30
2019-05-07T17:30:45.922Z,31.43
2019-05-07T17:33:15.996Z,32.30
2019-05-07T17:35:47.026Z,29.90
2019-05-07T17:38:16.107Z,32.27
2019-05-07T17:40:45.005Z,32.73
2019-05-07T17:43:13.962Z,32.20
2019-05-07T17:45:43.271Z,31.13
2019-05-07T17:48:12.477Z,29.83
2019-05-07T17:50:47.212Z,32.60
2019-05-07T17:53:16.434Z,31.93
2019-05-07T17:55:45.438Z,32.17
2019-05-07T17:58:14.358Z,30.57
2019-05-07T18:00:45.504Z,31.73
2019-05-07T18:03:32.776Z,32.10
2019-05-07T18:06:02.623Z,31.93
2019-05-07T18:08:32.531Z,32.67
2019-05-07T18:11:02.682Z,34.33
2019-05-07T18:13:32.970Z,31.63
2019-05-07T18:16:26.958Z,31.07
2019-05-07T18:18:56.004Z,29.60
2019-05-07T18:21:24.864Z,32.43
2019-05-07T18:23:53.990Z,31.10
2019-05-07T18:26:29.951Z,30.87
2019-05-07T18:28:54.212Z,31.47
2019-05-07T18:31:43.723Z,32.47
2019-05-07T18:34:13.231Z,30.87
2019-05-07T18:36:42.982Z,31.40
2019-05-07T18:39:11.976Z,31.17
2019-05-07T18:41:41.716Z,31.00
2019-05-07T18:44:13.589Z,33.43
2019-05-07T18:46:41.235Z,33.23
2019-05-07T18:49:09.990Z,32.73
2019-05-07T18:51:39.421Z,34.00
2019-05-07T18:54:08.848Z,35.67
2019-05-07T18:56:37.667Z,33.67
2019-05-07T18:59:07.498Z,32.97
2019-05-07T19:01:38.041Z,32.33
2019-05-07T19:04:08.166Z,32.60
2019-05-07T19:06:38.048Z,35.13
2019-05-07T19:09:08.507Z,33.57
2019-05-07T19:11:37.934Z,32.63
2019-05-07T19:14:07.003Z,33.30
2019-05-07T19:16:36.123Z,35.07
2019-05-07T19:19:05.459Z,34.87
2019-05-07T19:21:34.395Z,36.83
2019-05-07T19:24:03.803Z,35.50
2019-05-07T19:26:33.086Z,32.50
2019-05-07T19:29:02.590Z,34.47
2019-05-07T19:31:32.536Z,35.33
2019-05-07T19:34:03.051Z,33.07
2019-05-07T19:36:33.567Z,33.57
2019-05-07T19:39:04.863Z,33.30
2019-05-07T19:41:33.682Z,34.30
2019-05-07T19:44:02.868Z,34.93
2019-05-07T19:46:31.690Z,33.63
2019-05-07T19:49:02.634Z,33.60
2019-05-07T19:51:32.030Z,36.37
2019-05-07T19:54:02.058Z,33.97
2019-05-07T19:56:32.410Z,37.30
2019-05-07T19:59:01.428Z,34.70
2019-05-07T20:01:35.894Z,33.83
2019-05-07T20:04:04.852Z,32.40
2019-05-07T20:06:34.099Z,35.43
2019-05-07T20:09:12.025Z,33.33
2019-05-07T20:11:42.382Z,33.20
2019-05-07T20:14:10.827Z,32.20
2019-05-07T20:16:41.910Z,35.67
2019-05-07T20:19:14.758Z,33.70
2019-05-07T20:21:43.719Z,35.30
2019-05-07T20:24:12.881Z,34.50
2019-05-07T20:26:43.215Z,33.23
2019-05-07T20:29:12.503Z,34.03
2019-05-07T20:31:42.440Z,34.03
2019-05-07T20:34:13.096Z,32.40
2019-05-07T20:36:42.727Z,31.70
2019-05-07T20:39:12.774Z,32.50
2019-05-07T20:41:42.930Z,32.73
2019-05-07T20:44:15.096Z,33.00
2019-05-07T20:46:44.404Z,32.13
2019-05-07T20:49:13.427Z,32.27
2019-05-07T20:51:42.483Z,36.07
2019-05-07T20:54:22.886Z,33.90
2019-05-07T20:57:02.095Z,34.63
2019-05-07T20:59:32.180Z,32.97
2019-05-07T21:02:02.287Z,35.50
2019-05-07T21:04:32.985Z,32.33
2019-05-07T21:07:02.210Z,36.40
2019-05-07T21:09:32.813Z,32.90
2019-05-07T21:12:02.000Z,35.17
2019-05-07T21:14:32.429Z,34.50
2019-05-07T21:17:01.471Z,32.17
2019-05-07T21:19:30.361Z,36.43
2019-05-07T21:21:59.569Z,35.57
2019-05-07T21:24:28.529Z,33.70
2019-05-07T21:26:57.519Z,35.20
2019-05-07T21:29:26.450Z,32.23
2019-05-07T21:31:55.255Z,36.53
2019-05-07T21:34:24.026Z,35.73
2019-05-07T21:36:53.006Z,33.00
2019-05-07T21:39:22.436Z,32.83
2019-05-07T21:41:52.032Z,32.67
2019-05-07T21:44:22.743Z,35.03
2019-05-07T21:46:51.893Z,34.53
2019-05-07T21:49:22.314Z,32.93
2019-05-07T21:51:52.341Z,34.00
2019-05-07T21:54:37.349Z,37.27
2019-05-07T21:57:25.546Z,32.33
2019-05-07T22:00:14.920Z,35.30
2019-05-07T22:02:43.976Z,37.20
2019-05-07T22:05:13.076Z,34.27
2019-05-07T22:07:41.910Z,33.37
2019-05-07T22:10:12.791Z,35.07
2019-05-07T22:12:41.871Z,35.00
2019-05-07T22:15:12.831Z,33.77
2019-05-07T22:17:44.182Z,34.80
2019-05-07T22:20:12.562Z,37.10
2019-05-07T22:22:42.752Z,34.23
2019-05-07T22:25:13.059Z,34.13
2019-05-07T22:27:42.261Z,33.93
2019-05-07T22:30:13.855Z,35.10
2019-05-07T22:32:52.821Z,35.73
2019-05-07T22:35:25.459Z,41.07
2019-05-07T22:37:54.682Z,32.20
2019-05-07T22:40:23.772Z,40.07
2019-05-07T22:42:52.727Z,32.37
2019-05-07T22:45:22.771Z,31.77
2019-05-07T22:47:52.578Z,38.00
2019-05-07T22:50:22.539Z,32.83
2019-05-07T22:52:54.207Z,31.67
2019-05-07T22:55:22.371Z,31.73
2019-05-07T22:58:14.173Z,33.20
2019-05-07T23:00:46.785Z,34.23
2019-05-07T23:03:15.725Z,34.57
2019-05-07T23:05:44.883Z,38.53
2019-05-07T23:08:14.120Z,33.30
2019-05-07T23:10:44.561Z,32.23
2019-05-07T23:13:13.652Z,32.13
2019-05-07T23:15:43.008Z,31.83
2019-05-07T23:18:13.046Z,33.30
2019-05-07T23:20:42.813Z,34.87
2019-05-07T23:23:13.904Z,35.70
2019-05-07T23:25:43.118Z,31.53
2019-05-07T23:28:12.625Z,41.40
2019-05-07T23:30:42.150Z,30.63
2019-05-07T23:33:12.502Z,31.63
2019-05-07T23:35:42.152Z,31.43
2019-05-07T23:38:12.216Z,29.27
2019-05-07T23:41:01.986Z,30.97
2019-05-07T23:43:30.623Z,31.00
2019-05-07T23:45:59.370Z,30.03
2019-05-07T23:48:28.195Z,32.30
2019-05-07T23:50:57.171Z,31.33
2019-05-07T23:53:25.930Z,33.50
2019-05-07T23:55:54.885Z,33.03
2019-05-07T23:58:23.620Z,31.27
